createdAt,value
2019-01-23T00:00:38.456Z,24.00
2019-01-23T00:03:07.406Z,22.95
2019-01-23T00:05:36.298Z,22.82
2019-01-23T00:08:05.769Z,21.90
2019-01-23T00:10:34.563Z,22.90
2019-01-23T00:13:03.592Z,23.52
2019-01-23T00:15:32.480Z,23.22
2019-01-23T00:18:01.345Z,23.70
2019-01-23T00:20:30.453Z,20.85
2019-01-23T00:22:59.237Z,20.48
2019-01-23T00:25:28.039Z,23.75
2019-01-23T00:27:56.815Z,15.70
2019-01-23T00:30:25.697Z,21.15
2019-01-23T00:32:54.496Z,22.62
2019-01-23T00:35:23.285Z,21.87
2019-01-23T00:37:52.069Z,20.23
2019-01-23T00:40:21.120Z,18.82
2019-01-23T00:42:49.980Z,22.65
2019-01-23T00:45:19.095Z,18.57
2019-01-23T00:47:47.973Z,20.08
2019-01-23T00:50:16.922Z,25.15
2019-01-23T00:52:45.778Z,22.80
2019-01-23T00:55:15.245Z,19.05
2019-01-23T00:57:44.161Z,24.45
2019-01-23T01:00:16.537Z,23.00
2019-01-23T01:02:45.723Z,20.57
2019-01-23T01:05:16.160Z,23.98
2019-01-23T01:07:45.370Z,24.15
2019-01-23T01:10:15.156Z,13.50
2019-01-23T01:12:44.192Z,24.57
2019-01-23T01:15:13.764Z,20.95
2019-01-23T01:17:42.769Z,23.15
2019-01-23T01:20:12.133Z,21.05
2019-01-23T01:22:41.242Z,23.57
2019-01-23T01:25:12.293Z,22.73
2019-01-23T01:27:41.462Z,25.23
2019-01-23T01:30:13.457Z,23.07
2019-01-23T01:32:42.562Z,22.22
2019-01-23T01:35:11.753Z,24.55
2019-01-23T01:37:40.857Z,24.45
2019-01-23T01:40:12.459Z,21.25
2019-01-23T01:42:41.848Z,22.85
2019-01-23T01:45:10.996Z,24.18
2019-01-23T01:47:39.801Z,23.83
2019-01-23T01:50:11.500Z,23.25
2019-01-23T01:52:40.441Z,24.47
2019-01-23T01:55:09.773Z,25.02
2019-01-23T01:57:38.715Z,22.32
2019-01-23T02:00:16.629Z,24.07
2019-01-23T02:02:45.824Z,23.85
2019-01-23T02:05:14.888Z,24.23
2019-01-23T02:07:43.756Z,23.45
2019-01-23T02:10:14.550Z,24.02
2019-01-23T02:12:43.596Z,23.77
2019-01-23T02:15:13.450Z,25.60
2019-01-23T02:17:42.378Z,25.30
2019-01-23T02:20:14.597Z,24.72
2019-01-23T02:22:43.706Z,25.57
2019-01-23T02:25:13.071Z,25.72
2019-01-23T02:27:43.180Z,22.67
2019-01-23T02:30:13.021Z,25.92
2019-01-23T02:32:41.802Z,23.52
2019-01-23T02:35:10.743Z,21.82
2019-01-23T02:37:39.891Z,23.65
2019-01-23T02:40:12.105Z,26.77
2019-01-23T02:42:41.210Z,25.05
2019-01-23T02:45:10.141Z,25.48
2019-01-23T02:47:39.018Z,26.45
2019-01-23T02:50:08.212Z,26.97
2019-01-23T02:52:37.019Z,29.40
2019-01-23T02:55:06.948Z,24.15
2019-01-23T02:57:35.742Z,24.50
2019-01-23T03:00:07.310Z,27.48
2019-01-23T03:02:36.190Z,23.70
2019-01-23T03:05:06.913Z,24.18
2019-01-23T03:07:35.721Z,25.43
2019-01-23T03:10:06.440Z,26.77
2019-01-23T03:12:35.317Z,25.23
2019-01-23T03:15:05.106Z,27.58
2019-01-23T03:17:33.914Z,25.17
2019-01-23T03:20:02.846Z,29.52
2019-01-23T03:22:31.720Z,23.85
2019-01-23T03:25:00.501Z,24.87
2019-01-23T03:27:29.301Z,27.17
2019-01-23T03:29:58.336Z,24.32
2019-01-23T03:32:27.405Z,24.15
2019-01-23T03:34:56.189Z,25.97
2019-01-23T03:37:25.317Z,24.57
2019-01-23T03:39:54.625Z,27.45
2019-01-23T03:42:24.019Z,26.80
2019-01-23T03:44:52.816Z,28.20
2019-01-23T03:47:21.641Z,26.35
2019-01-23T03:49:50.441Z,23.18
2019-01-23T03:52:19.306Z,24.07
2019-01-23T03:54:48.449Z,25.37
2019-01-23T03:57:17.233Z,26.00
2019-01-23T03:59:46.113Z,26.07
2019-01-23T04:02:15.307Z,24.00
2019-01-23T04:04:44.254Z,22.70
2019-01-23T04:07:13.374Z,24.02
2019-01-23T04:09:42.230Z,24.47
2019-01-23T04:12:11.112Z,25.43
2019-01-23T04:14:39.978Z,25.75
2019-01-23T04:17:08.841Z,25.72
2019-01-23T04:19:37.877Z,23.50
2019-01-23T04:22:06.817Z,26.62
2019-01-23T04:24:35.637Z,23.98
2019-01-23T04:27:04.894Z,24.10
2019-01-23T04:29:39.553Z,24.55
2019-01-23T04:32:04.266Z,25.15
2019-01-23T04:34:33.065Z,25.02
2019-01-23T04:37:01.893Z,22.80
2019-01-23T04:39:30.669Z,25.95
2019-01-23T04:41:59.493Z,26.30
2019-01-23T04:44:28.886Z,24.15
2019-01-23T04:46:58.003Z,26.15
2019-01-23T04:49:27.069Z,26.62
2019-01-23T04:52:01.899Z,26.62
2019-01-23T04:54:30.946Z,25.70
2019-01-23T04:56:59.990Z,26.07
2019-01-23T04:59:28.789Z,24.92
2019-01-23T05:01:58.183Z,26.27
2019-01-23T05:04:27.450Z,24.82
2019-01-23T05:06:56.545Z,23.80
2019-01-23T05:09:25.340Z,23.90
2019-01-23T05:11:54.217Z,27.80
2019-01-23T05:14:23.008Z,27.27
2019-01-23T05:16:51.786Z,31.15
2019-01-23T05:19:20.837Z,34.15
2019-01-23T05:21:50.130Z,31.65
2019-01-23T05:24:19.251Z,30.27
2019-01-23T05:26:48.134Z,30.23
2019-01-23T05:29:16.939Z,27.87
2019-01-23T05:31:45.718Z,27.42
2019-01-23T05:34:14.772Z,25.00
2019-01-23T05:36:43.639Z,25.65
2019-01-23T05:39:12.425Z,26.57
2019-01-23T05:41:41.225Z,26.82
2019-01-23T05:44:10.033Z,24.37
2019-01-23T05:46:39.130Z,23.50
2019-01-23T05:49:07.919Z,24.67
2019-01-23T05:51:36.705Z,24.85
2019-01-23T05:54:05.581Z,24.40
2019-01-23T05:56:34.861Z,26.30
2019-01-23T05:59:03.922Z,27.13
2019-01-23T06:01:32.727Z,24.18
2019-01-23T06:04:01.658Z,23.85
2019-01-23T06:06:30.464Z,24.63
2019-01-23T06:08:59.508Z,27.98
2019-01-23T06:11:28.308Z,24.47
2019-01-23T06:13:57.124Z,27.02
2019-01-23T06:16:25.989Z,25.55
2019-01-23T06:18:55.035Z,26.15
2019-01-23T06:21:24.060Z,25.75
2019-01-23T06:23:52.884Z,24.98
2019-01-23T06:26:21.910Z,27.02
2019-01-23T06:28:50.974Z,25.23
2019-01-23T06:31:19.766Z,26.37
2019-01-23T06:33:48.545Z,24.72
2019-01-23T06:36:17.369Z,29.20
2019-01-23T06:38:46.449Z,27.45
2019-01-23T06:41:15.240Z,27.37
2019-01-23T06:43:44.020Z,24.07
2019-01-23T06:46:12.906Z,25.40
2019-01-23T06:48:42.034Z,24.05
2019-01-23T06:51:11.159Z,24.80
2019-01-23T06:53:39.954Z,28.45
2019-01-23T06:56:09.006Z,25.37
2019-01-23T06:58:37.788Z,25.30
2019-01-23T07:01:06.658Z,26.00
2019-01-23T07:03:35.438Z,26.65
2019-01-23T07:06:04.666Z,29.12
2019-01-23T07:08:33.465Z,27.77
2019-01-23T07:11:03.081Z,27.13
2019-01-23T07:13:31.871Z,27.60
2019-01-23T07:16:00.693Z,24.75
2019-01-23T07:18:29.494Z,26.75
2019-01-23T07:20:58.533Z,26.55
2019-01-23T07:23:27.573Z,25.92
2019-01-23T07:25:56.393Z,24.87
2019-01-23T07:28:25.165Z,25.92
2019-01-23T07:30:53.955Z,27.75
2019-01-23T07:33:22.744Z,28.35
2019-01-23T07:35:51.782Z,25.32
2019-01-23T07:38:20.548Z,25.23
2019-01-23T07:40:49.500Z,24.40
2019-01-23T07:43:18.299Z,26.25
2019-01-23T07:45:47.089Z,26.00
2019-01-23T07:48:17.076Z,26.12
2019-01-23T07:50:46.005Z,23.80
2019-01-23T07:53:14.861Z,25.17
2019-01-23T07:55:43.674Z,31.48
2019-01-23T07:58:12.473Z,27.60
2019-01-23T08:00:41.266Z,24.90
2019-01-23T08:03:10.129Z,25.17
2019-01-23T08:05:39.021Z,28.25
2019-01-23T08:08:08.349Z,26.05
2019-01-23T08:10:37.373Z,26.73
2019-01-23T08:13:06.352Z,24.45
2019-01-23T08:15:36.176Z,25.97
2019-01-23T08:18:05.793Z,26.87
2019-01-23T08:20:35.642Z,25.40
2019-01-23T08:23:04.585Z,28.27
2019-01-23T08:25:33.459Z,25.82
2019-01-23T08:28:02.412Z,26.40
2019-01-23T08:30:38.362Z,23.60
2019-01-23T08:33:01.844Z,26.68
2019-01-23T08:35:30.619Z,27.35
2019-01-23T08:37:59.474Z,27.30
2019-01-23T08:40:28.553Z,25.65
2019-01-23T08:42:57.667Z,27.55
2019-01-23T08:45:26.444Z,25.95
2019-01-23T08:47:55.478Z,26.82
2019-01-23T08:50:30.033Z,26.07
2019-01-23T08:52:58.955Z,28.95
2019-01-23T08:55:27.798Z,24.82
2019-01-23T08:57:56.670Z,26.10
2019-01-23T09:00:25.858Z,26.20
2019-01-23T09:02:54.806Z,28.17
2019-01-23T09:05:23.678Z,28.15
2019-01-23T09:07:52.723Z,23.77
2019-01-23T09:10:22.432Z,27.20
2019-01-23T09:12:51.353Z,26.20
2019-01-23T09:15:20.387Z,24.85
2019-01-23T09:17:49.168Z,27.48
2019-01-23T09:20:18.362Z,24.07
2019-01-23T09:22:47.309Z,27.35
2019-01-23T09:25:18.210Z,24.70
2019-01-23T09:27:47.144Z,25.62
2019-01-23T09:30:22.229Z,24.92
2019-01-23T09:33:28.608Z,24.98
2019-01-23T09:36:18.780Z,25.48
2019-01-23T09:39:17.987Z,26.25
2019-01-23T09:42:03.838Z,25.12
2019-01-23T09:45:04.813Z,25.08
2019-01-23T09:47:52.249Z,26.05
2019-01-23T09:50:58.301Z,24.70
2019-01-23T09:53:38.016Z,25.02
2019-01-23T09:56:06.995Z,24.72
2019-01-23T09:58:36.033Z,24.00
2019-01-23T10:01:06.715Z,25.00
2019-01-23T10:03:35.806Z,26.82
2019-01-23T10:06:04.755Z,25.10
2019-01-23T10:08:33.608Z,24.05
2019-01-23T10:11:02.410Z,25.12
2019-01-23T10:13:31.198Z,24.18
2019-01-23T10:16:09.301Z,23.47
2019-01-23T10:18:38.094Z,24.15
2019-01-23T10:21:06.963Z,25.60
2019-01-23T10:23:35.902Z,23.42
2019-01-23T10:26:04.849Z,23.00
2019-01-23T10:28:33.995Z,22.93
2019-01-23T10:31:06.613Z,21.80
2019-01-23T10:33:33.568Z,24.30
2019-01-23T10:36:02.452Z,21.73
2019-01-23T10:38:31.253Z,23.15
2019-01-23T10:41:00.128Z,19.27
2019-01-23T10:43:28.972Z,19.77
2019-01-23T10:45:57.769Z,21.23
2019-01-23T10:48:26.570Z,20.00
2019-01-23T10:50:55.428Z,20.37
2019-01-23T10:53:26.580Z,21.52
2019-01-23T10:55:55.365Z,19.85
2019-01-23T10:58:24.231Z,21.30
2019-01-23T11:00:53.180Z,19.73
2019-01-23T11:03:22.294Z,21.25
2019-01-23T11:05:51.244Z,20.55
2019-01-23T11:08:20.118Z,24.12
2019-01-23T11:10:48.933Z,21.65
2019-01-23T11:13:17.785Z,21.57
2019-01-23T11:15:46.664Z,21.42
2019-01-23T11:18:15.762Z,20.62
2019-01-23T11:20:44.558Z,19.48
2019-01-23T11:23:13.596Z,20.35
2019-01-23T11:25:42.453Z,21.40
2019-01-23T11:28:11.234Z,17.52
2019-01-23T11:30:40.172Z,18.32
2019-01-23T11:33:09.222Z,19.35
2019-01-23T11:35:38.153Z,20.80
2019-01-23T11:38:07.105Z,19.23
2019-01-23T11:40:36.154Z,20.88
2019-01-23T11:43:05.011Z,21.80
2019-01-23T11:45:33.944Z,20.30
2019-01-23T11:48:02.802Z,21.00
2019-01-23T11:50:31.585Z,18.20
2019-01-23T11:53:00.459Z,19.40
2019-01-23T11:55:29.510Z,17.55
2019-01-23T11:57:58.381Z,19.98
2019-01-23T12:00:29.931Z,18.23
2019-01-23T12:02:59.096Z,22.45
2019-01-23T12:05:28.185Z,23.30
2019-01-23T12:07:57.134Z,18.90
2019-01-23T12:10:26.064Z,19.02
2019-01-23T12:12:54.996Z,19.32
2019-01-23T12:15:24.401Z,19.60
2019-01-23T12:17:53.339Z,20.05
2019-01-23T12:20:22.398Z,19.27
2019-01-23T12:22:51.380Z,21.20
2019-01-23T12:25:20.351Z,19.35
2019-01-23T12:27:49.342Z,20.72
2019-01-23T12:30:21.601Z,18.75
2019-01-23T12:32:50.782Z,18.82
2019-01-23T12:35:19.729Z,20.32
2019-01-23T12:37:48.677Z,22.52
2019-01-23T12:40:18.034Z,19.77
2019-01-23T12:42:46.990Z,20.77
2019-01-23T12:45:21.320Z,23.02
2019-01-23T12:47:50.243Z,20.75
2019-01-23T12:50:22.108Z,22.17
2019-01-23T12:52:51.020Z,19.12
2019-01-23T12:55:19.909Z,21.12
2019-01-23T12:57:48.835Z,21.80
2019-01-23T13:00:21.314Z,22.22
2019-01-23T13:02:50.197Z,22.73
2019-01-23T13:05:20.029Z,23.00
2019-01-23T13:07:48.986Z,21.42
2019-01-23T13:10:18.961Z,20.35
2019-01-23T13:12:48.021Z,22.40
2019-01-23T13:15:19.210Z,22.82
2019-01-23T13:17:48.129Z,21.62
2019-01-23T13:20:18.059Z,21.77
2019-01-23T13:22:47.088Z,21.35
2019-01-23T13:25:17.949Z,22.80
2019-01-23T13:27:47.009Z,22.25
2019-01-23T13:30:18.652Z,23.47
2019-01-23T13:32:47.688Z,22.67
2019-01-23T13:35:22.034Z,22.80
2019-01-23T13:37:51.142Z,19.02
2019-01-23T13:40:38.637Z,20.77
2019-01-23T13:43:08.113Z,19.77
2019-01-23T13:45:37.327Z,21.45
2019-01-23T13:48:08.372Z,20.40
2019-01-23T13:50:38.014Z,21.95
2019-01-23T13:53:07.445Z,21.52
2019-01-23T13:55:36.541Z,21.15
2019-01-23T13:58:06.681Z,21.42
2019-01-23T14:00:40.058Z,22.30
2019-01-23T14:03:10.153Z,21.10
2019-01-23T14:05:39.747Z,22.05
2019-01-23T14:08:10.108Z,20.43
2019-01-23T14:10:39.763Z,23.55
2019-01-23T14:13:10.370Z,24.00
2019-01-23T14:15:40.637Z,23.20
2019-01-23T14:18:10.028Z,22.82
2019-01-23T14:20:39.417Z,25.12
2019-01-23T14:23:08.942Z,23.77
2019-01-23T14:25:38.431Z,23.00
2019-01-23T14:28:07.587Z,23.15
2019-01-23T14:30:42.462Z,23.87
2019-01-23T14:33:16.522Z,20.92
2019-01-23T14:35:46.825Z,23.30
2019-01-23T14:38:16.307Z,23.62
2019-01-23T14:40:45.685Z,30.52
2019-01-23T14:43:15.345Z,30.82
2019-01-23T14:45:44.915Z,24.10
2019-01-23T14:48:14.566Z,24.90
2019-01-23T14:50:44.414Z,22.48
2019-01-23T14:53:14.537Z,22.62
2019-01-23T14:55:44.353Z,23.00
2019-01-23T14:58:14.233Z,22.55
2019-01-23T15:00:44.072Z,24.72
2019-01-23T15:03:13.328Z,23.73
2019-01-23T15:05:43.120Z,20.50
2019-01-23T15:08:12.741Z,24.60
2019-01-23T15:10:42.685Z,23.87
2019-01-23T15:13:12.734Z,23.87
2019-01-23T15:15:44.255Z,24.10
2019-01-23T15:18:14.461Z,21.68
2019-01-23T15:20:44.312Z,23.32
2019-01-23T15:23:14.029Z,22.02
2019-01-23T15:25:43.898Z,22.35
2019-01-23T15:28:14.495Z,21.27
2019-01-23T15:30:44.092Z,22.55
2019-01-23T15:33:14.191Z,21.07
2019-01-23T15:35:45.246Z,21.40
2019-01-23T15:38:17.070Z,22.77
2019-01-23T15:40:49.665Z,25.52
2019-01-23T15:43:19.601Z,22.02
2019-01-23T15:45:50.734Z,23.50
2019-01-23T15:48:21.428Z,21.50
2019-01-23T15:50:51.873Z,23.95
2019-01-23T15:53:22.481Z,21.48
2019-01-23T15:55:53.339Z,22.90
2019-01-23T15:58:24.251Z,48.65
2019-01-23T16:00:55.169Z,24.37
2019-01-23T16:03:25.112Z,26.12
2019-01-23T16:05:55.498Z,25.02
2019-01-23T16:08:25.783Z,29.35
2019-01-23T16:10:55.661Z,32.25
2019-01-23T16:13:26.882Z,30.72
2019-01-23T16:15:56.873Z,28.73
2019-01-23T16:18:26.785Z,31.07
2019-01-23T16:20:56.889Z,29.70
2019-01-23T16:23:27.639Z,30.50
2019-01-23T16:25:58.545Z,28.67
2019-01-23T16:28:29.361Z,33.05
2019-01-23T16:31:00.214Z,30.97
2019-01-23T16:33:31.175Z,29.07
2019-01-23T16:36:02.109Z,28.87
2019-01-23T16:38:33.960Z,28.62
2019-01-23T16:41:04.492Z,28.70
2019-01-23T16:43:34.455Z,28.50
2019-01-23T16:46:05.829Z,27.85
2019-01-23T16:48:37.265Z,29.90
2019-01-23T16:51:08.033Z,26.23
2019-01-23T16:53:38.732Z,31.07
2019-01-23T16:56:08.966Z,30.20
2019-01-23T16:58:39.430Z,26.77
2019-01-23T17:01:09.634Z,26.85
2019-01-23T17:03:40.252Z,27.45
2019-01-23T17:06:10.941Z,29.65
2019-01-23T17:08:41.334Z,29.15
2019-01-23T17:11:12.073Z,29.30
2019-01-23T17:13:42.126Z,54.90
2019-01-23T17:16:12.525Z,33.92
2019-01-23T17:18:44.063Z,27.67
2019-01-23T17:21:16.591Z,27.35
2019-01-23T17:23:47.596Z,27.55
2019-01-23T17:30:01.129Z,21.95
2019-01-23T17:32:31.523Z,24.70
2019-01-23T17:35:02.280Z,26.93
2019-01-23T17:37:36.460Z,25.77
2019-01-23T17:40:09.068Z,27.25
2019-01-23T17:42:40.262Z,27.35
2019-01-23T17:45:14.762Z,26.68
2019-01-23T17:47:45.681Z,25.37
2019-01-23T17:50:18.418Z,24.95
2019-01-23T17:52:49.043Z,25.57
2019-01-23T17:55:26.229Z,26.23
2019-01-23T17:57:57.534Z,28.32
2019-01-23T18:00:31.163Z,27.65
2019-01-23T18:03:02.241Z,29.07
2019-01-23T18:05:33.802Z,28.25
2019-01-23T18:08:04.413Z,26.12
2019-01-23T18:10:36.197Z,27.48
2019-01-23T18:13:06.730Z,28.15
2019-01-23T18:15:44.945Z,23.40
2019-01-23T18:18:15.872Z,26.23
2019-01-23T18:20:48.378Z,23.55
2019-01-23T18:23:19.778Z,26.87
2019-01-23T18:25:53.277Z,25.75
2019-01-23T18:28:23.930Z,26.57
2019-01-23T18:31:12.298Z,27.52
2019-01-23T18:33:50.809Z,25.68
2019-01-23T18:36:47.070Z,25.17
2019-01-23T18:39:39.742Z,26.07
2019-01-23T18:42:29.126Z,24.72
2019-01-23T18:45:26.892Z,27.50
2019-01-23T18:48:15.954Z,27.52
2019-01-23T18:51:38.559Z,28.30
2019-01-23T18:54:10.163Z,28.25
2019-01-23T18:56:41.513Z,27.67
2019-01-23T18:59:12.955Z,24.32
2019-01-23T19:01:44.524Z,26.57
2019-01-23T19:04:15.957Z,28.65
2019-01-23T19:06:49.048Z,28.80
2019-01-23T19:09:21.415Z,26.65
2019-01-23T19:11:52.781Z,26.55
2019-01-23T19:14:24.729Z,27.15
2019-01-23T19:16:56.640Z,30.75
2019-01-23T19:19:28.590Z,29.07
2019-01-23T19:22:00.390Z,29.23
2019-01-23T19:24:32.175Z,30.20
2019-01-23T19:27:03.831Z,30.77
2019-01-23T19:29:43.108Z,35.13
2019-01-23T19:34:47.268Z,27.27
2019-01-23T19:37:18.749Z,28.92
2019-01-23T19:39:49.910Z,28.70
2019-01-23T19:42:21.669Z,29.52
2019-01-23T19:44:53.322Z,30.02
2019-01-23T19:47:24.957Z,29.20
2019-01-23T19:49:56.409Z,30.23
2019-01-23T19:52:27.656Z,31.80
2019-01-23T19:54:58.581Z,28.62
2019-01-23T19:57:30.039Z,27.55
2019-01-23T20:00:01.305Z,29.15
2019-01-23T20:02:32.437Z,30.52
2019-01-23T20:05:03.904Z,28.85
2019-01-23T20:07:35.567Z,31.40
2019-01-23T20:10:14.491Z,30.40
2019-01-23T20:12:45.696Z,31.93
2019-01-23T20:15:19.707Z,31.62
2019-01-23T20:17:52.334Z,30.85
2019-01-23T20:20:24.617Z,30.55
2019-01-23T20:22:56.029Z,31.52
2019-01-23T20:25:28.054Z,33.55
2019-01-23T20:27:59.762Z,32.88
2019-01-23T20:30:40.244Z,32.85
2019-01-23T20:33:11.872Z,34.63
2019-01-23T20:35:44.763Z,31.70
2019-01-23T20:38:18.077Z,30.62
2019-01-23T20:40:52.816Z,33.10
2019-01-23T20:43:24.529Z,34.92
2019-01-23T20:46:09.560Z,30.37
2019-01-23T20:48:41.706Z,33.15
2019-01-23T20:51:13.312Z,29.35
2019-01-23T20:53:44.370Z,31.35
2019-01-23T20:56:15.330Z,30.32
2019-01-23T20:58:46.649Z,34.53
2019-01-23T21:01:18.431Z,33.20
2019-01-23T21:03:49.993Z,33.08
2019-01-23T21:06:21.510Z,35.10
2019-01-23T21:08:52.754Z,31.12
2019-01-23T21:11:23.476Z,30.62
2019-01-23T21:13:56.033Z,31.73
2019-01-23T21:16:26.886Z,32.65
2019-01-23T21:18:57.882Z,32.25
2019-01-23T21:21:28.565Z,33.28
2019-01-23T21:23:59.396Z,33.25
2019-01-23T21:26:29.961Z,32.10
2019-01-23T21:29:00.903Z,29.82
2019-01-23T21:31:32.008Z,31.00
2019-01-23T21:34:02.836Z,33.00
2019-01-23T21:36:34.050Z,29.67
2019-01-23T21:39:05.233Z,32.23
2019-01-23T21:41:36.331Z,28.05
2019-01-23T21:44:08.033Z,30.25
2019-01-23T21:46:39.482Z,32.63
2019-01-23T21:49:11.181Z,31.97
2019-01-23T21:51:41.381Z,33.35
2019-01-23T21:54:11.912Z,32.53
2019-01-23T21:56:42.237Z,28.90
2019-01-23T21:59:12.110Z,32.58
2019-01-23T22:01:42.092Z,31.00
2019-01-23T22:04:11.518Z,32.20
2019-01-23T22:06:41.061Z,32.60
2019-01-23T22:09:10.985Z,27.87
2019-01-23T22:11:43.694Z,30.72
2019-01-23T22:14:11.835Z,31.07
2019-01-23T22:16:41.377Z,30.50
2019-01-23T22:19:10.864Z,32.58
2019-01-23T22:21:40.500Z,31.23
2019-01-23T22:24:09.961Z,30.10
2019-01-23T22:26:39.375Z,32.15
2019-01-23T22:29:08.737Z,30.02
2019-01-23T22:31:38.685Z,31.70
2019-01-23T22:34:08.225Z,31.77
2019-01-23T22:36:37.618Z,31.48
2019-01-23T22:39:09.156Z,32.40
2019-01-23T22:41:38.225Z,33.67
2019-01-23T22:44:07.258Z,34.05
2019-01-23T22:46:36.565Z,32.35
2019-01-23T22:49:05.689Z,32.20
2019-01-23T22:51:34.596Z,32.58
2019-01-23T22:54:03.415Z,31.68
2019-01-23T22:56:32.191Z,32.83
2019-01-23T22:59:00.977Z,33.38
2019-01-23T23:01:49.837Z,30.88
2019-01-23T23:04:19.034Z,29.90
2019-01-23T23:06:47.977Z,32.65
2019-01-23T23:09:17.118Z,33.58
2019-01-23T23:11:45.912Z,32.63
2019-01-23T23:14:18.541Z,31.77
2019-01-23T23:16:47.792Z,32.42
2019-01-23T23:19:17.638Z,32.35
2019-01-23T23:21:46.453Z,34.18
2019-01-23T23:24:15.235Z,32.10
2019-01-23T23:26:44.020Z,36.50
2019-01-23T23:29:12.893Z,32.23
2019-01-23T23:31:41.839Z,30.37
2019-01-23T23:34:10.652Z,33.92
2019-01-23T23:36:39.516Z,35.17
2019-01-23T23:39:09.652Z,32.73
2019-01-23T23:41:38.444Z,32.93
2019-01-23T23:44:07.725Z,32.98
2019-01-23T23:46:36.616Z,32.63
2019-01-23T23:49:05.822Z,33.55
2019-01-23T23:51:35.113Z,33.10
2019-01-23T23:54:04.695Z,32.25
2019-01-23T23:56:33.620Z,32.03
2019-01-23T23:59:02.515Z,32.78
